Time;durP1;ratioP1;P1;durP2;ratioP2;P2;SDS_P1;SDS_P2;PMS_P1;PMS_P2;Temp;Humidity;BMP_temperature;BMP_pressure;BME280_temperature;BME280_humidity;BME280_pressure;Samples;Min_cycle;Max_cycle;Signal;HPM_P1;HPM_P2
2024/03/09 00:02:00;;;;;;;20.17;12.48;;;5.30;80.90;;;;;;5054968;28;20044;-61
2024/03/09 00:04:27;;;;;;;20.95;12.50;;;5.30;80.90;;;;;;5060073;28;20453;-61
2024/03/09 00:06:52;;;;;;;20.55;12.98;;;5.30;80.90;;;;;;5059958;28;20083;-62
2024/03/09 00:09:19;;;;;;;21.58;12.85;;;5.30;81.00;;;;;;5063216;28;20068;-62
2024/03/09 00:11:44;;;;;;;20.90;12.40;;;5.30;81.10;;;;;;5059964;28;20190;-61
2024/03/09 00:14:10;;;;;;;19.75;12.15;;;5.20;81.40;;;;;;5060277;28;20408;-62
2024/03/09 00:16:36;;;;;;;20.95;12.07;;;5.20;80.40;;;;;;5060715;28;20036;-62
2024/03/09 00:19:03;;;;;;;20.85;12.52;;;5.20;81.30;;;;;;5063730;28;20407;-62
2024/03/09 00:21:29;;;;;;;22.67;12.75;;;5.20;81.30;;;;;;5063831;28;20453;-62
2024/03/09 00:23:54;;;;;;;23.08;13.13;;;5.20;81.40;;;;;;5060909;28;20028;-62
2024/03/09 00:26:20;;;;;;;22.00;12.82;;;5.10;81.40;;;;;;5052712;28;20447;-61
2024/03/09 00:28:45;;;;;;;21.95;12.73;;;5.10;81.50;;;;;;5055084;28;20045;-62
2024/03/09 00:31:11;;;;;;;21.23;12.80;;;5.10;81.50;;;;;;5063426;28;20207;-61
2024/03/09 00:33:38;;;;;;;20.58;13.05;;;5.10;81.60;;;;;;5063098;28;20115;-61
2024/03/09 00:36:04;;;;;;;19.38;12.35;;;5.10;81.60;;;;;;5057296;28;20029;-62
2024/03/09 00:38:30;;;;;;;25.15;12.98;;;5.10;81.60;;;;;;5057580;28;20040;-61
2024/03/09 00:40:55;;;;;;;21.75;13.38;;;5.10;81.60;;;;;;5062463;28;20587;-62
2024/03/09 00:43:21;;;;;;;20.58;12.48;;;5.00;81.50;;;;;;5060871;28;20116;-61
2024/03/09 00:45:47;;;;;;;20.63;12.88;;;5.00;81.50;;;;;;5051380;28;20040;-61
2024/03/09 00:48:13;;;;;;;18.65;12.40;;;5.00;81.50;;;;;;5057564;28;20079;-61
2024/03/09 00:50:42;;;;;;;21.20;13.10;;;5.00;81.40;;;;;;5058517;28;20040;-61
2024/03/09 00:53:08;;;;;;;20.10;12.15;;;4.90;81.30;;;;;;5065102;28;20512;-60
2024/03/09 00:55:35;;;;;;;20.60;12.90;;;4.90;81.40;;;;;;5059347;28;20128;-60
2024/03/09 00:58:01;;;;;;;23.10;13.05;;;4.80;81.50;;;;;;5054897;28;20025;-60
2024/03/09 01:00:28;;;;;;;23.13;12.75;;;4.80;81.70;;;;;;5051844;28;20053;-61
2024/03/09 01:02:54;;;;;;;22.13;13.27;;;4.70;81.80;;;;;;5056442;28;20040;-61
2024/03/09 01:05:22;;;;;;;24.23;12.90;;;4.70;82.00;;;;;;5059217;28;20108;-60
2024/03/09 01:07:49;;;;;;;22.67;13.10;;;4.60;82.10;;;;;;5064024;28;20094;-60
2024/03/09 01:10:15;;;;;;;22.00;12.60;;;4.60;82.40;;;;;;5056033;28;20086;-61
2024/03/09 01:12:41;;;;;;;20.90;12.20;;;4.50;82.50;;;;;;5062716;28;20052;-61
2024/03/09 01:15:09;;;;;;;23.67;12.88;;;4.50;82.50;;;;;;5064011;28;20139;-60
2024/03/09 01:17:36;;;;;;;21.40;12.80;;;4.50;82.60;;;;;;5051555;28;20037;-60
2024/03/09 01:20:05;;;;;;;20.60;12.30;;;4.50;82.80;;;;;;5054561;28;20032;-59
2024/03/09 01:22:31;;;;;;;22.30;11.98;;;4.50;83.00;;;;;;5062786;28;20086;-60
2024/03/09 01:24:57;;;;;;;19.33;12.20;;;4.50;83.00;;;;;;5064534;28;20473;-60
2024/03/09 01:27:22;;;;;;;23.02;13.55;;;4.50;83.00;;;;;;5066683;28;20594;-61
2024/03/09 01:29:48;;;;;;;23.73;13.55;;;4.50;83.10;;;;;;5063496;28;20041;-61
2024/03/09 01:32:14;;;;;;;24.55;13.45;;;4.50;83.20;;;;;;5058750;28;20433;-61
2024/03/09 01:34:41;;;;;;;22.20;12.60;;;4.50;83.20;;;;;;5061550;28;20041;-60
2024/03/09 01:37:14;;;;;;;20.25;11.70;;;4.40;83.30;;;;;;5061454;28;20040;-60
2024/03/09 01:39:40;;;;;;;18.80;11.77;;;4.50;83.30;;;;;;5066213;28;20503;-60
2024/03/09 01:42:10;;;;;;;23.42;13.30;;;4.50;83.40;;;;;;5061987;28;20048;-60
2024/03/09 01:44:36;;;;;;;22.10;12.75;;;4.50;83.50;;;;;;5056835;28;20112;-60
2024/03/09 01:47:06;;;;;;;21.77;13.02;;;4.50;83.30;;;;;;5058927;28;20177;-61
2024/03/09 01:49:34;;;;;;;20.10;12.88;;;4.50;83.40;;;;;;5058715;28;20032;-60
2024/03/09 01:52:00;;;;;;;23.02;12.95;;;4.50;83.40;;;;;;5066953;28;20048;-61
2024/03/09 01:54:28;;;;;;;21.55;12.93;;;4.50;83.70;;;;;;5055238;28;20500;-61
2024/03/09 01:56:56;;;;;;;23.92;13.18;;;4.50;83.70;;;;;;5058056;28;20036;-61
2024/03/09 01:59:24;;;;;;;23.92;14.45;;;4.50;83.80;;;;;;5060585;28;20048;-61
2024/03/09 02:01:50;;;;;;;26.67;15.13;;;4.50;83.90;;;;;;5064982;28;20033;-61
2024/03/09 02:04:16;;;;;;;25.52;13.90;;;4.40;84.00;;;;;;5059542;28;20044;-60
2024/03/09 02:06:41;;;;;;;25.13;14.25;;;4.40;84.00;;;;;;5056039;28;20037;-60
2024/03/09 02:09:08;;;;;;;23.58;13.88;;;4.50;84.20;;;;;;5061794;28;20630;-60
2024/03/09 02:11:41;;;;;;;21.42;13.18;;;4.50;84.30;;;;;;5061528;28;20087;-60
2024/03/09 02:14:07;;;;;;;21.98;13.27;;;4.50;84.40;;;;;;5054909;28;20128;-60
2024/03/09 02:16:33;;;;;;;23.80;13.70;;;4.50;84.40;;;;;;5059187;28;20170;-60
2024/03/09 02:19:00;;;;;;;22.55;12.80;;;4.50;84.40;;;;;;5059928;28;20411;-61
2024/03/09 02:21:31;;;;;;;24.10;13.43;;;4.50;84.40;;;;;;5068422;28;20033;-61
2024/03/09 02:24:05;;;;;;;23.95;12.95;;;4.50;84.50;;;;;;5061709;28;20588;-59
2024/03/09 02:26:31;;;;;;;21.35;12.65;;;4.60;84.90;;;;;;5061120;28;20436;-60
2024/03/09 02:28:57;;;;;;;21.45;12.85;;;4.60;84.70;;;;;;5058640;28;20533;-60
2024/03/09 02:31:25;;;;;;;21.25;12.60;;;4.60;84.70;;;;;;5056887;28;20036;-60
2024/03/09 02:33:53;;;;;;;20.92;12.48;;;4.60;84.70;;;;;;5056565;28;20488;-60
2024/03/09 02:36:27;;;;;;;22.25;13.35;;;4.70;84.70;;;;;;5057902;28;20036;-60
2024/03/09 02:38:54;;;;;;;23.67;13.80;;;4.70;84.70;;;;;;5055318;28;20513;-60
2024/03/09 02:41:20;;;;;;;25.58;14.60;;;4.70;84.50;;;;;;5058390;28;20452;-61
2024/03/09 02:43:47;;;;;;;26.35;14.25;;;4.70;84.40;;;;;;5061740;28;20057;-61
2024/03/09 02:46:15;;;;;;;24.33;15.15;;;4.70;84.40;;;;;;5059920;28;20033;-60
2024/03/09 02:48:48;;;;;;;23.40;14.23;;;4.60;84.40;;;;;;5057345;28;20029;-61
2024/03/09 02:51:14;;;;;;;25.13;13.80;;;4.60;84.50;;;;;;5056993;28;20048;-61
2024/03/09 02:53:40;;;;;;;25.50;14.68;;;4.60;84.60;;;;;;5065210;28;20029;-61
2024/03/09 02:56:10;;;;;;;22.70;13.93;;;4.60;84.70;;;;;;5063817;28;20040;-61
2024/03/09 02:58:37;;;;;;;23.80;14.63;;;4.60;84.70;;;;;;5063341;28;20628;-61
2024/03/09 03:01:03;;;;;;;23.48;14.27;;;4.70;84.70;;;;;;5055222;28;20041;-60
2024/03/09 03:06:15;;;;;;;25.07;13.97;;;4.70;84.50;;;;;;5062110;28;20178;-59
2024/03/09 03:08:41;;;;;;;26.15;14.48;;;4.70;84.50;;;;;;5058709;28;20033;-61
2024/03/09 03:11:07;;;;;;;24.27;14.80;;;4.60;84.40;;;;;;5054044;28;20400;-61
2024/03/09 03:13:33;;;;;;;23.75;15.05;;;4.70;84.40;;;;;;5061000;28;20500;-61
2024/03/09 03:15:59;;;;;;;22.27;14.20;;;4.60;84.40;;;;;;5061804;28;20037;-60
2024/03/09 03:18:24;;;;;;;23.95;14.30;;;4.60;84.30;;;;;;5056875;28;20029;-59
2024/03/09 03:20:50;;;;;;;24.85;14.85;;;4.50;84.20;;;;;;5064937;28;20115;-60
2024/03/09 03:23:16;;;;;;;24.42;14.15;;;4.50;84.20;;;;;;5062787;28;20071;-61
2024/03/09 03:25:44;;;;;;;23.48;14.13;;;4.50;84.40;;;;;;5058131;28;20090;-60
2024/03/09 03:28:10;;;;;;;23.58;13.40;;;4.40;84.50;;;;;;5056925;28;22084;-60
2024/03/09 03:30:36;;;;;;;23.15;13.90;;;4.50;84.60;;;;;;5060668;28;20036;-59
2024/03/09 03:33:03;;;;;;;22.13;13.55;;;4.40;84.40;;;;;;5059247;28;20098;-60
2024/03/09 03:35:31;;;;;;;24.33;13.85;;;4.40;84.40;;;;;;5057313;28;20048;-60
2024/03/09 03:37:59;;;;;;;21.77;13.68;;;4.50;84.50;;;;;;5060176;28;20101;-61
2024/03/09 03:40:24;;;;;;;21.98;13.43;;;4.50;84.40;;;;;;5063214;28;20036;-59
2024/03/09 03:42:51;;;;;;;24.88;13.68;;;4.50;84.40;;;;;;5069505;28;20025;-61
2024/03/09 03:45:17;;;;;;;21.92;13.77;;;4.40;85.00;;;;;;5055915;28;20130;-59
2024/03/09 03:47:44;;;;;;;22.25;13.43;;;4.40;84.00;;;;;;5060922;28;20028;-60
2024/03/09 03:50:10;;;;;;;23.60;13.70;;;4.40;83.90;;;;;;5051774;28;20033;-59
2024/03/09 03:52:38;;;;;;;22.55;12.95;;;4.30;84.10;;;;;;5057844;28;20044;-59
2024/03/09 03:55:11;;;;;;;24.38;13.40;;;4.30;84.20;;;;;;5055586;28;20511;-60
2024/03/09 03:57:38;;;;;;;23.75;13.15;;;4.20;84.30;;;;;;5058135;28;20766;-60
2024/03/09 04:00:06;;;;;;;21.45;12.90;;;4.20;84.60;;;;;;5059177;28;20032;-59
2024/03/09 04:02:33;;;;;;;22.38;12.80;;;4.20;84.40;;;;;;5056317;28;20048;-60
2024/03/09 04:04:59;;;;;;;21.05;13.25;;;4.20;84.20;;;;;;5056708;28;20044;-60
2024/03/09 04:07:25;;;;;;;25.38;13.65;;;4.10;84.30;;;;;;5053406;28;20033;-60
2024/03/09 04:09:50;;;;;;;23.52;12.75;;;4.10;85.20;;;;;;5062379;28;20040;-60
2024/03/09 04:12:17;;;;;;;23.05;12.75;;;4.10;84.20;;;;;;5060083;28;20065;-60
2024/03/09 04:14:43;;;;;;;20.65;12.75;;;4.10;84.20;;;;;;5055074;28;20396;-61
2024/03/09 04:17:10;;;;;;;23.23;12.93;;;4.10;84.20;;;;;;5059317;28;20039;-59
2024/03/09 04:19:36;;;;;;;23.20;13.13;;;4.00;84.20;;;;;;5057197;28;20052;-60
2024/03/09 04:22:02;;;;;;;26.20;13.82;;;4.00;84.20;;;;;;5053922;28;20711;-60
2024/03/09 04:24:28;;;;;;;23.90;13.98;;;4.00;84.00;;;;;;5061158;28;20044;-60
2024/03/09 04:26:56;;;;;;;23.70;13.88;;;4.00;84.10;;;;;;5062223;28;20036;-60
2024/03/09 04:29:22;;;;;;;22.17;13.00;;;3.90;84.00;;;;;;5056424;28;20345;-59
2024/03/09 04:31:48;;;;;;;22.05;13.23;;;3.80;84.00;;;;;;5061777;28;20048;-59
2024/03/09 04:34:15;;;;;;;23.25;13.85;;;3.80;84.10;;;;;;5066703;28;20036;-59
2024/03/09 04:36:41;;;;;;;21.73;13.65;;;3.70;84.40;;;;;;5057614;28;20029;-60
2024/03/09 04:39:09;;;;;;;23.48;12.98;;;3.70;84.80;;;;;;5057510;28;20044;-59
2024/03/09 04:41:35;;;;;;;25.23;14.55;;;3.70;85.10;;;;;;5061605;28;20025;-61
2024/03/09 04:44:00;;;;;;;26.20;14.30;;;3.60;85.20;;;;;;5058965;28;20091;-59
2024/03/09 04:46:27;;;;;;;25.75;14.40;;;3.60;85.10;;;;;;5056955;28;20037;-59
2024/03/09 04:48:53;;;;;;;24.40;14.00;;;3.60;85.40;;;;;;5058887;28;20208;-61
2024/03/09 04:51:18;;;;;;;22.48;13.70;;;3.60;85.70;;;;;;5059421;28;20541;-61
2024/03/09 04:53:45;;;;;;;23.77;14.07;;;3.60;85.90;;;;;;5055907;28;20033;-61
2024/03/09 04:56:11;;;;;;;24.90;13.70;;;3.60;85.80;;;;;;5058272;28;20071;-59
2024/03/09 04:58:36;;;;;;;24.23;14.98;;;3.60;85.60;;;;;;5060408;28;20033;-60
2024/03/09 05:01:02;;;;;;;22.33;13.73;;;3.50;85.50;;;;;;5059722;28;20117;-61
2024/03/09 05:03:28;;;;;;;24.55;13.82;;;3.50;85.60;;;;;;5066911;28;20032;-60
2024/03/09 05:05:54;;;;;;;24.75;14.40;;;3.50;85.70;;;;;;5060069;28;20056;-61
2024/03/09 05:08:19;;;;;;;23.48;13.02;;;3.50;85.60;;;;;;5063663;28;20053;-59
2024/03/09 05:10:45;;;;;;;20.95;12.75;;;3.50;85.50;;;;;;5059352;28;20048;-59
2024/03/09 05:13:10;;;;;;;23.52;13.98;;;3.50;85.50;;;;;;5066330;28;20568;-60
2024/03/09 05:15:36;;;;;;;23.23;13.68;;;3.50;85.40;;;;;;5056865;28;20029;-61
2024/03/09 05:18:03;;;;;;;27.45;13.65;;;3.50;85.30;;;;;;5067593;28;20037;-59
2024/03/09 05:20:30;;;;;;;22.98;12.95;;;3.40;85.00;;;;;;5063942;28;20495;-59
2024/03/09 05:22:57;;;;;;;20.42;12.55;;;3.40;84.90;;;;;;5059725;28;20556;-59
2024/03/09 05:25:23;;;;;;;22.60;12.90;;;3.40;85.10;;;;;;5059453;28;20037;-59
2024/03/09 05:27:50;;;;;;;22.80;13.00;;;3.40;85.10;;;;;;5061394;28;20037;-60
2024/03/09 05:30:18;;;;;;;24.05;13.45;;;3.40;85.00;;;;;;5057510;28;20531;-59
2024/03/09 05:32:54;;;;;;;21.38;13.20;;;3.40;84.90;;;;;;5066789;28;20041;-59
2024/03/09 05:35:26;;;;;;;25.30;13.35;;;3.40;84.90;;;;;;5056452;28;20096;-60
2024/03/09 05:37:52;;;;;;;19.02;11.65;;;3.40;84.80;;;;;;5061195;28;20384;-59
2024/03/09 05:40:18;;;;;;;21.08;12.95;;;3.40;84.70;;;;;;5068647;28;20032;-60
2024/03/09 05:42:47;;;;;;;21.58;12.80;;;3.40;84.80;;;;;;5058432;28;20040;-59
2024/03/09 05:45:23;;;;;;;25.70;13.85;;;3.40;84.60;;;;;;5064496;28;20036;-60
2024/03/09 05:47:56;;;;;;;23.73;14.18;;;3.40;84.60;;;;;;5064679;28;20389;-61
2024/03/09 05:50:24;;;;;;;27.98;15.20;;;3.40;84.40;;;;;;5059164;28;20064;-61
2024/03/09 05:52:54;;;;;;;24.08;14.60;;;3.30;84.40;;;;;;5057921;28;20377;-60
2024/03/09 05:55:21;;;;;;;26.05;14.93;;;3.30;84.50;;;;;;5060076;28;20040;-61
2024/03/09 05:57:52;;;;;;;24.52;13.63;;;3.30;84.40;;;;;;5061479;28;20032;-60
2024/03/09 06:00:29;;;;;;;25.17;14.15;;;3.20;84.60;;;;;;5064054;28;20420;-60
2024/03/09 06:02:55;;;;;;;24.48;13.90;;;3.10;84.90;;;;;;5066579;28;20037;-59
2024/03/09 06:05:22;;;;;;;25.20;13.88;;;3.10;85.10;;;;;;5062375;28;20043;-61
2024/03/09 06:07:48;;;;;;;26.58;14.65;;;3.10;85.20;;;;;;5062260;28;20537;-59
2024/03/09 06:10:19;;;;;;;37.15;17.60;;;3.10;85.30;;;;;;5059524;28;20036;-60
2024/03/09 06:12:50;;;;;;;32.25;17.83;;;3.10;85.30;;;;;;5064947;28;20040;-60
2024/03/09 06:15:16;;;;;;;37.05;20.10;;;3.10;85.30;;;;;;5060123;28;20127;-59
2024/03/09 06:17:43;;;;;;;34.63;18.30;;;3.10;85.30;;;;;;5061759;28;20035;-61
2024/03/09 06:20:11;;;;;;;32.72;17.17;;;3.10;85.50;;;;;;5060942;28;20048;-61
2024/03/09 06:22:37;;;;;;;29.95;17.08;;;3.10;85.60;;;;;;5056671;28;20040;-61
2024/03/09 06:25:03;;;;;;;26.17;15.02;;;3.10;85.60;;;;;;5058758;28;20044;-60
2024/03/09 06:27:29;;;;;;;26.83;15.35;;;3.10;85.60;;;;;;5063625;28;20047;-60
2024/03/09 06:29:56;;;;;;;29.15;15.20;;;3.10;85.60;;;;;;5058386;28;20029;-59
2024/03/09 06:32:28;;;;;;;26.25;14.75;;;3.10;85.60;;;;;;5058264;28;20037;-60
2024/03/09 06:34:54;;;;;;;28.10;14.80;;;3.10;86.00;;;;;;5057351;28;20028;-59
2024/03/09 06:37:20;;;;;;;22.45;13.18;;;3.10;86.10;;;;;;5061362;28;20032;-60
2024/03/09 06:39:46;;;;;;;24.92;14.13;;;3.10;86.50;;;;;;5057032;28;20033;-61
2024/03/09 06:42:11;;;;;;;26.13;14.63;;;3.10;86.60;;;;;;5056370;28;20056;-61
2024/03/09 06:44:37;;;;;;;27.63;14.93;;;3.10;86.70;;;;;;5063373;28;20119;-58
2024/03/09 06:47:06;;;;;;;29.25;15.88;;;3.10;86.80;;;;;;5055454;28;20044;-59
2024/03/09 06:49:35;;;;;;;30.10;15.95;;;3.20;87.00;;;;;;5058668;28;20057;-60
2024/03/09 06:52:04;;;;;;;27.13;15.30;;;3.20;87.10;;;;;;5055812;28;20036;-61
2024/03/09 06:54:30;;;;;;;27.38;15.52;;;3.20;87.30;;;;;;5062986;28;20032;-61
2024/03/09 06:56:56;;;;;;;30.35;16.75;;;3.20;87.30;;;;;;5063883;28;20033;-61
2024/03/09 06:59:22;;;;;;;29.92;16.40;;;3.30;88.40;;;;;;5066793;28;20040;-60
2024/03/09 07:01:51;;;;;;;28.75;15.75;;;3.30;87.60;;;;;;5064722;28;20037;-59
2024/03/09 07:04:18;;;;;;;31.38;17.55;;;3.30;87.70;;;;;;5066868;28;20090;-60
2024/03/09 07:06:44;;;;;;;27.15;16.80;;;3.30;87.70;;;;;;5065850;28;20033;-60
2024/03/09 07:09:11;;;;;;;28.25;16.50;;;3.30;87.80;;;;;;5066667;28;20032;-59
2024/03/09 07:11:38;;;;;;;31.48;17.25;;;3.40;87.90;;;;;;5065969;28;20389;-60
2024/03/09 07:14:04;;;;;;;28.58;16.33;;;3.40;88.00;;;;;;5064508;28;20675;-60
2024/03/09 07:16:29;;;;;;;31.38;15.88;;;3.40;88.00;;;;;;5066468;28;20040;-59
2024/03/09 07:18:56;;;;;;;27.58;16.35;;;3.40;88.00;;;;;;5064227;28;20060;-60
2024/03/09 07:21:23;;;;;;;26.33;15.70;;;3.40;88.00;;;;;;5066066;28;20114;-59
2024/03/09 07:23:49;;;;;;;29.38;16.13;;;3.50;88.10;;;;;;5065751;28;20062;-61
2024/03/09 07:26:15;;;;;;;29.38;15.63;;;3.50;88.20;;;;;;5066205;28;20413;-60
2024/03/09 07:28:41;;;;;;;27.60;16.17;;;3.50;88.20;;;;;;5062429;28;20499;-61
2024/03/09 07:31:06;;;;;;;29.98;17.50;;;3.60;88.30;;;;;;5066217;28;20041;-59
2024/03/09 07:33:32;;;;;;;27.05;16.05;;;3.60;88.30;;;;;;5065132;28;20029;-61
2024/03/09 07:35:59;;;;;;;27.02;16.48;;;3.70;88.30;;;;;;5062296;28;20033;-58
2024/03/09 07:38:24;;;;;;;34.72;19.10;;;3.70;88.40;;;;;;5064086;28;20029;-61
2024/03/09 07:40:50;;;;;;;28.25;16.45;;;3.70;88.60;;;;;;5064264;28;20397;-61
2024/03/09 07:43:19;;;;;;;31.10;17.80;;;3.70;88.30;;;;;;5064219;28;20040;-59
2024/03/09 07:45:45;;;;;;;33.42;18.33;;;3.70;88.40;;;;;;5064016;28;20085;-61
2024/03/09 07:48:16;;;;;;;33.38;18.52;;;3.80;88.60;;;;;;5062947;28;20602;-59
2024/03/09 07:50:48;;;;;;;32.28;17.30;;;3.80;88.60;;;;;;5066232;28;20063;-61
2024/03/09 07:53:14;;;;;;;31.80;18.08;;;3.90;88.70;;;;;;5066462;28;20040;-61
2024/03/09 07:55:40;;;;;;;29.35;17.15;;;3.90;88.70;;;;;;5064743;28;20098;-60
2024/03/09 07:58:06;;;;;;;30.02;17.67;;;3.90;88.60;;;;;;5064870;28;20032;-60
2024/03/09 08:00:34;;;;;;;31.23;17.58;;;4.00;88.80;;;;;;5065754;28;20401;-59
2024/03/09 08:03:01;;;;;;;32.28;18.58;;;4.00;88.60;;;;;;5061249;28;20036;-60
2024/03/09 08:05:28;;;;;;;27.00;16.33;;;4.00;88.70;;;;;;5061862;28;20058;-61
2024/03/09 08:07:55;;;;;;;30.88;17.52;;;4.10;88.70;;;;;;5063614;28;20043;-60
2024/03/09 08:10:23;;;;;;;29.85;17.17;;;4.10;88.70;;;;;;5067242;28;20040;-61
2024/03/09 08:12:50;;;;;;;34.17;18.23;;;4.20;88.80;;;;;;5065290;28;20036;-61
2024/03/09 08:15:16;;;;;;;30.98;18.30;;;4.20;88.80;;;;;;5066243;28;20037;-61
2024/03/09 08:17:48;;;;;;;32.47;18.77;;;4.30;88.90;;;;;;5065020;28;20086;-59
2024/03/09 08:20:20;;;;;;;33.53;18.30;;;4.40;88.90;;;;;;5065239;28;20115;-59
2024/03/09 08:22:46;;;;;;;29.35;17.27;;;4.40;88.60;;;;;;5063308;28;20040;-61
2024/03/09 08:25:15;;;;;;;33.13;18.77;;;4.40;88.60;;;;;;5065213;28;20028;-60
2024/03/09 08:27:44;;;;;;;29.55;18.13;;;4.40;89.60;;;;;;5066407;28;20043;-61
2024/03/09 08:30:16;;;;;;;32.35;18.58;;;4.40;88.70;;;;;;5066521;28;20113;-60
2024/03/09 08:32:45;;;;;;;33.95;19.05;;;4.50;88.90;;;;;;5068326;28;20060;-61
2024/03/09 08:35:14;;;;;;;32.75;18.42;;;4.50;88.90;;;;;;5067600;28;20579;-59
2024/03/09 08:37:41;;;;;;;37.15;20.88;;;4.60;89.10;;;;;;5069963;28;20056;-60
2024/03/09 08:40:11;;;;;;;35.70;20.48;;;4.60;89.10;;;;;;5069082;28;20078;-61
2024/03/09 08:42:37;;;;;;;37.05;19.38;;;4.70;89.40;;;;;;5069835;28;20032;-61
2024/03/09 08:45:06;;;;;;;34.28;19.73;;;4.70;89.40;;;;;;5065913;28;20369;-59
2024/03/09 08:47:32;;;;;;;35.22;20.58;;;4.80;89.70;;;;;;5066397;28;20040;-60
2024/03/09 08:49:58;;;;;;;37.92;20.58;;;4.90;89.50;;;;;;5067736;28;20037;-60
2024/03/09 08:52:24;;;;;;;35.45;20.15;;;4.90;89.30;;;;;;5068740;28;20067;-59
2024/03/09 08:54:50;;;;;;;31.05;18.52;;;5.00;89.50;;;;;;5066331;28;20025;-60
2024/03/09 08:57:17;;;;;;;33.05;18.92;;;5.00;89.40;;;;;;5066997;28;20033;-61
2024/03/09 08:59:44;;;;;;;30.27;18.25;;;5.10;89.50;;;;;;5066518;28;20146;-61
2024/03/09 09:02:10;;;;;;;30.60;18.08;;;5.20;89.50;;;;;;5067871;28;20040;-62
2024/03/09 09:04:36;;;;;;;33.85;18.40;;;5.30;90.10;;;;;;5066157;28;20505;-60
2024/03/09 09:07:04;;;;;;;33.65;18.90;;;5.40;89.30;;;;;;5066163;28;20581;-60
2024/03/09 09:09:31;;;;;;;30.27;18.08;;;5.50;89.30;;;;;;5068189;28;20055;-61
2024/03/09 09:11:57;;;;;;;30.90;17.23;;;5.60;89.30;;;;;;5065554;28;20557;-61
2024/03/09 09:14:23;;;;;;;33.08;18.67;;;5.60;89.00;;;;;;5067022;28;20037;-61
2024/03/09 09:16:49;;;;;;;28.90;18.25;;;5.80;88.90;;;;;;5063920;28;20399;-61
2024/03/09 09:19:15;;;;;;;32.97;18.55;;;5.80;88.70;;;;;;5058377;28;20037;-60
2024/03/09 09:21:41;;;;;;;31.00;19.17;;;5.90;88.60;;;;;;5060918;28;20108;-61
2024/03/09 09:24:07;;;;;;;33.13;19.85;;;6.00;88.60;;;;;;5059931;28;20448;-62
2024/03/09 09:26:33;;;;;;;31.45;19.20;;;6.10;88.60;;;;;;5064186;28;20446;-61
2024/03/09 09:28:59;;;;;;;30.20;18.60;;;6.10;88.50;;;;;;5063274;28;20064;-59
2024/03/09 09:31:25;;;;;;;29.48;17.80;;;6.20;88.50;;;;;;5065673;28;20060;-60
2024/03/09 09:33:51;;;;;;;30.38;17.70;;;6.30;88.50;;;;;;5067386;28;20064;-62
2024/03/09 09:36:18;;;;;;;31.15;17.90;;;6.40;88.60;;;;;;5064157;28;20033;-61
2024/03/09 09:38:45;;;;;;;30.48;18.25;;;6.40;88.50;;;;;;5062313;28;20456;-60
2024/03/09 09:41:12;;;;;;;28.70;17.50;;;6.50;88.40;;;;;;5059591;28;20075;-61
2024/03/09 09:43:38;;;;;;;29.98;18.20;;;6.60;88.30;;;;;;5054666;28;20512;-61
2024/03/09 09:46:05;;;;;;;32.08;19.50;;;6.70;88.30;;;;;;5064662;28;20044;-60
2024/03/09 09:48:32;;;;;;;29.90;18.00;;;6.70;88.10;;;;;;5059378;28;20021;-62
2024/03/09 09:51:01;;;;;;;29.00;17.65;;;6.80;88.30;;;;;;5062322;28;20021;-61
2024/03/09 09:53:27;;;;;;;30.25;18.55;;;6.90;88.30;;;;;;5058257;28;20067;-61
2024/03/09 09:55:52;;;;;;;31.17;17.48;;;7.00;88.40;;;;;;5059502;28;20036;-61
2024/03/09 09:58:18;;;;;;;27.80;17.40;;;7.10;88.60;;;;;;5058225;28;20306;-62
2024/03/09 10:00:44;;;;;;;31.05;17.95;;;7.20;88.50;;;;;;5062890;28;20662;-61
2024/03/09 10:03:12;;;;;;;25.05;16.70;;;7.30;88.50;;;;;;5059965;28;20427;-60
2024/03/09 10:05:39;;;;;;;29.42;16.90;;;7.40;88.20;;;;;;5058837;28;20033;-61
2024/03/09 10:08:09;;;;;;;26.27;16.77;;;7.50;88.00;;;;;;5056027;28;20100;-60
2024/03/09 10:10:38;;;;;;;27.15;17.48;;;7.70;87.80;;;;;;5062544;28;20043;-61
2024/03/09 10:13:11;;;;;;;28.00;17.63;;;7.80;87.60;;;;;;5056461;28;20178;-61
2024/03/09 10:15:43;;;;;;;26.23;17.67;;;7.90;87.30;;;;;;5066139;28;20029;-61
2024/03/09 10:18:09;;;;;;;28.35;18.02;;;8.00;87.40;;;;;;5061392;28;20037;-59
2024/03/09 10:20:36;;;;;;;27.77;17.35;;;8.00;87.10;;;;;;5055190;28;20041;-62
2024/03/09 10:23:13;;;;;;;31.27;18.73;;;8.10;87.10;;;;;;5057150;28;20135;-59
2024/03/09 10:25:42;;;;;;;29.92;17.88;;;8.30;86.00;;;;;;5061975;28;20045;-61
2024/03/09 10:28:10;;;;;;;27.20;17.90;;;8.40;86.20;;;;;;5062839;28;20448;-61
2024/03/09 10:30:37;;;;;;;26.33;17.02;;;8.50;86.20;;;;;;5064594;28;20036;-61
2024/03/09 10:33:07;;;;;;;25.42;16.20;;;8.60;86.20;;;;;;5059952;28;20075;-61
2024/03/09 10:35:32;;;;;;;29.58;17.45;;;8.70;86.00;;;;;;5060894;28;20045;-60
2024/03/09 10:37:59;;;;;;;25.08;16.73;;;8.70;85.70;;;;;;5052768;28;20509;-60
2024/03/09 10:40:26;;;;;;;28.00;16.92;;;8.80;85.90;;;;;;5064675;28;20047;-61
2024/03/09 10:42:54;;;;;;;26.98;17.10;;;8.90;85.70;;;;;;5063658;28;20032;-61
2024/03/09 10:45:22;;;;;;;26.70;17.00;;;9.00;85.80;;;;;;5057794;28;20091;-60
2024/03/09 10:47:52;;;;;;;24.13;16.42;;;9.10;86.60;;;;;;5055282;28;20033;-59
2024/03/09 10:50:29;;;;;;;29.63;17.92;;;9.20;85.50;;;;;;5059874;28;20071;-62
2024/03/09 10:53:09;;;;;;;24.08;15.32;;;9.30;85.30;;;;;;5057120;28;20047;-61
2024/03/09 10:55:49;;;;;;;23.67;15.43;;;9.40;85.20;;;;;;5062602;28;20031;-61
2024/03/09 10:58:17;;;;;;;24.50;15.52;;;9.50;85.30;;;;;;5062261;28;20025;-60
2024/03/09 11:00:49;;;;;;;24.67;15.13;;;9.60;85.30;;;;;;5061803;28;20565;-62
2024/03/09 11:03:21;;;;;;;22.73;15.00;;;9.80;85.20;;;;;;5060969;28;20033;-60
2024/03/09 11:05:48;;;;;;;23.30;15.23;;;9.90;85.10;;;;;;5058041;28;20052;-61
2024/03/09 11:08:14;;;;;;;24.33;16.40;;;10.00;84.80;;;;;;5066644;28;20032;-61
2024/03/09 11:10:43;;;;;;;25.50;15.00;;;10.10;84.60;;;;;;5059305;28;20119;-61
2024/03/09 11:13:10;;;;;;;21.50;14.77;;;10.20;84.50;;;;;;5055303;28;20076;-61
2024/03/09 11:15:39;;;;;;;22.20;14.63;;;10.30;84.50;;;;;;5050782;28;20152;-61
2024/03/09 11:18:09;;;;;;;22.10;14.13;;;10.40;84.20;;;;;;5058519;28;20037;-62
2024/03/09 11:20:49;;;;;;;21.77;13.75;;;10.50;84.00;;;;;;5061660;28;20090;-61
2024/03/09 11:23:17;;;;;;;20.58;13.77;;;10.70;83.30;;;;;;5060164;28;20048;-62
2024/03/09 11:25:54;;;;;;;20.23;14.02;;;10.80;83.80;;;;;;5058076;28;20032;-61
2024/03/09 11:28:29;;;;;;;20.23;14.05;;;10.90;83.20;;;;;;5056629;28;20052;-61
2024/03/09 11:31:14;;;;;;;19.33;12.63;;;11.00;83.40;;;;;;5053995;28;20040;-62
2024/03/09 11:34:05;;;;;;;;;;;11.20;82.90;;;;;;5054112;28;20083;-60
2024/03/09 11:36:47;;;;;;;14.23;9.10;;;11.30;82.60;;;;;;5053394;28;19916;-60
2024/03/09 11:39:14;;;;;;;13.48;9.50;;;11.50;81.30;;;;;;5060361;28;20036;-60
2024/03/09 11:41:45;;;;;;;13.88;8.57;;;11.60;81.20;;;;;;5057287;28;20048;-62
2024/03/09 11:44:13;;;;;;;13.10;8.43;;;11.70;79.60;;;;;;5057600;28;20468;-61
2024/03/09 11:46:39;;;;;;;12.88;8.82;;;11.80;79.80;;;;;;5055637;28;20447;-61
2024/03/09 11:49:06;;;;;;;15.07;8.02;;;11.90;79.10;;;;;;5057069;28;20048;-60
2024/03/09 11:51:35;;;;;;;11.45;7.90;;;12.10;78.20;;;;;;5059308;28;20039;-61
2024/03/09 11:54:06;;;;;;;11.77;8.40;;;12.10;77.70;;;;;;5061343;28;20029;-61
2024/03/09 11:56:33;;;;;;;12.52;8.18;;;12.30;77.20;;;;;;5059644;28;20212;-62
2024/03/09 11:59:00;;;;;;;12.68;9.10;;;12.40;76.50;;;;;;5060146;28;20132;-61
2024/03/09 12:01:26;;;;;;;11.85;8.27;;;12.50;76.60;;;;;;5060796;28;20676;-62
2024/03/09 12:03:53;;;;;;;13.18;8.68;;;12.60;76.30;;;;;;5054790;28;20036;-57
2024/03/09 12:06:23;;;;;;;11.52;8.27;;;12.70;76.00;;;;;;5055430;28;20040;-60
2024/03/09 12:08:51;;;;;;;11.57;8.38;;;12.80;75.80;;;;;;5060420;28;20127;-61
2024/03/09 12:11:19;;;;;;;12.80;8.75;;;12.90;75.30;;;;;;5057959;28;20044;-60
2024/03/09 12:13:46;;;;;;;10.73;8.00;;;13.00;74.70;;;;;;5061536;28;20025;-60
2024/03/09 12:16:13;;;;;;;11.48;7.78;;;13.10;74.60;;;;;;5057359;28;20058;-62
2024/03/09 12:18:42;;;;;;;11.68;8.68;;;13.20;74.40;;;;;;5051801;28;20026;-62
2024/03/09 12:21:09;;;;;;;10.65;8.57;;;13.30;74.20;;;;;;5051426;28;20048;-61
2024/03/09 12:23:35;;;;;;;13.40;9.88;;;13.40;74.40;;;;;;5054864;28;20029;-61
2024/03/09 12:26:01;;;;;;;12.05;8.88;;;13.40;75.00;;;;;;5061200;28;20024;-61
2024/03/09 12:28:27;;;;;;;12.15;7.90;;;13.50;73.90;;;;;;5059686;28;20040;-60
2024/03/09 12:30:55;;;;;;;12.35;9.18;;;13.60;73.50;;;;;;5056727;28;20041;-61
2024/03/09 12:33:21;;;;;;;12.27;9.35;;;13.70;73.30;;;;;;5060808;28;20182;-61
2024/03/09 12:35:47;;;;;;;13.35;9.15;;;13.80;73.00;;;;;;5057536;28;20490;-62
2024/03/09 12:38:14;;;;;;;14.13;9.10;;;13.80;72.70;;;;;;5056758;28;20033;-60
2024/03/09 12:40:45;;;;;;;12.05;8.95;;;13.80;72.50;;;;;;5050580;28;20527;-62